Decoded Metar for ULOO (PSKOV in RUSSIA) (IATA:PKV) | Meteo·Mobile Aviation Weather
aviador You're here:

ULOO Decoded Metar

PSKOV in RUSSIA
Report Time2018-08-17 01:00:00
UTC Time2018-08-17 01:31:52
Flight Rules lifr LIFR
WindCalm
Visibility0300 m
Phenomena:N/A
Clouds:N/A
Expected CloudBase > 400 ft AGL from Temp-Dew spread
CeilingNone
Temp11°C (ISA -4)
Dew Point10°C (94% RH)
QNH1022 hPa
Density Alt-427 ft
Elevation154 ft
Report Wrong Elevation
Raw Report
ULOO 170100Z AUTO 00000MPS 0550 0300NE // NCD 11/10 Q1022 RMK
QFE762=

Extra information for ULOO:More info

Metar Taf Metar & Taf Last 4 Metars F.Rules Stats Wind Profile Meteogram Temp Stats Airport Information Weather charts Add Link Nearby VenuesMetar ALERT Operation Metar Decoded Social comments